Terminal Aerodrome Forecast
Issued by NWS Omaha/Valley, NE

Home | Current Version | Previous Version | Text Only | Print | Product List | Glossary On
Versions: 1 2 3 4 5 6 7 8 9 10 11 12 13 14 15
000
FTUS43 KOAX 161124
TAFOFK
TAF
KOFK 161124Z 1612/1712 02008KT 2SM -FZRA BR OVC004
     FM162100 35013KT 1 1/2SM -FZRASN OVC004
     FM162300 34012KT 1 1/2SM -SN OVC003
     FM170100 34013KT 3SM -SN OVC006
     FM170300 33013KT P6SM OVC008
     FM170600 32013KT P6SM BKN040
     FM170900 32010KT P6SM SCT080=

USA.gov is the U.S. government's official web portal to all federal, state and local government web resources and services.